sensor_id;sensor_type;location;lat;lon;timestamp;temperature;humidity
2749;DHT22;1382;52.142;11.618;2023-04-12T00:00:35;9.50;46.90
2749;DHT22;1382;52.142;11.618;2023-04-12T00:03:04;9.50;46.80
2749;DHT22;1382;52.142;11.618;2023-04-12T00:05:32;9.40;46.80
2749;DHT22;1382;52.142;11.618;2023-04-12T00:07:58;9.40;46.70
2749;DHT22;1382;52.142;11.618;2023-04-12T00:10:25;9.40;46.70
2749;DHT22;1382;52.142;11.618;2023-04-12T00:12:52;9.40;47.40
2749;DHT22;1382;52.142;11.618;2023-04-12T00:15:19;9.40;46.70
2749;DHT22;1382;52.142;11.618;2023-04-12T00:17:47;9.30;46.70
2749;DHT22;1382;52.142;11.618;2023-04-12T00:20:14;9.30;46.70
2749;DHT22;1382;52.142;11.618;2023-04-12T00:22:41;9.30;46.70
2749;DHT22;1382;52.142;11.618;2023-04-12T00:25:08;9.30;46.70
2749;DHT22;1382;52.142;11.618;2023-04-12T00:27:35;9.30;46.70
2749;DHT22;1382;52.142;11.618;2023-04-12T00:30:02;9.30;46.60
2749;DHT22;1382;52.142;11.618;2023-04-12T00:32:29;9.20;46.50
2749;DHT22;1382;52.142;11.618;2023-04-12T00:34:57;9.20;46.60
2749;DHT22;1382;52.142;11.618;2023-04-12T00:37:23;9.20;46.60
2749;DHT22;1382;52.142;11.618;2023-04-12T00:39:50;9.20;46.50
2749;DHT22;1382;52.142;11.618;2023-04-12T00:42:17;9.10;46.40
2749;DHT22;1382;52.142;11.618;2023-04-12T00:44:43;9.10;46.40
2749;DHT22;1382;52.142;11.618;2023-04-12T00:47:10;9.10;46.50
2749;DHT22;1382;52.142;11.618;2023-04-12T00:49:37;9.10;46.50
2749;DHT22;1382;52.142;11.618;2023-04-12T00:52:07;9.10;46.50
2749;DHT22;1382;52.142;11.618;2023-04-12T00:54:34;9.10;46.50
2749;DHT22;1382;52.142;11.618;2023-04-12T00:57:02;9.00;46.50
2749;DHT22;1382;52.142;11.618;2023-04-12T00:59:29;9.20;46.60
2749;DHT22;1382;52.142;11.618;2023-04-12T01:01:57;9.00;46.60
2749;DHT22;1382;52.142;11.618;2023-04-12T01:04:25;9.00;46.60
2749;DHT22;1382;52.142;11.618;2023-04-12T01:07:02;8.90;46.50
2749;DHT22;1382;52.142;11.618;2023-04-12T01:09:37;8.90;46.70
2749;DHT22;1382;52.142;11.618;2023-04-12T01:12:15;8.90;46.50
2749;DHT22;1382;52.142;11.618;2023-04-12T01:14:50;8.90;46.60
2749;DHT22;1382;52.142;11.618;2023-04-12T01:17:22;8.80;46.50
2749;DHT22;1382;52.142;11.618;2023-04-12T01:19:56;9.00;46.60
2749;DHT22;1382;52.142;11.618;2023-04-12T01:22:35;8.80;46.40
2749;DHT22;1382;52.142;11.618;2023-04-12T01:25:20;8.80;46.40
2749;DHT22;1382;52.142;11.618;2023-04-12T01:27:54;8.80;46.40
2749;DHT22;1382;52.142;11.618;2023-04-12T01:30:25;8.70;46.40
2749;DHT22;1382;52.142;11.618;2023-04-12T01:32:55;8.70;46.40
2749;DHT22;1382;52.142;11.618;2023-04-12T01:35:26;8.70;46.40
2749;DHT22;1382;52.142;11.618;2023-04-12T01:37:53;8.70;46.40
2749;DHT22;1382;52.142;11.618;2023-04-12T01:40:23;8.70;46.40
2749;DHT22;1382;52.142;11.618;2023-04-12T01:43:02;8.70;46.40
2749;DHT22;1382;52.142;11.618;2023-04-12T01:45:29;8.60;46.30
2749;DHT22;1382;52.142;11.618;2023-04-12T01:47:56;8.60;46.30
2749;DHT22;1382;52.142;11.618;2023-04-12T01:50:26;8.60;46.30
2749;DHT22;1382;52.142;11.618;2023-04-12T01:53:01;8.60;46.50
2749;DHT22;1382;52.142;11.618;2023-04-12T01:55:29;8.50;46.40
2749;DHT22;1382;52.142;11.618;2023-04-12T01:57:58;8.50;46.40
2749;DHT22;1382;52.142;11.618;2023-04-12T02:00:28;8.50;46.60
2749;DHT22;1382;52.142;11.618;2023-04-12T02:02:56;8.70;46.70
2749;DHT22;1382;52.142;11.618;2023-04-12T02:05:23;8.50;46.50
2749;DHT22;1382;52.142;11.618;2023-04-12T02:07:51;8.50;46.50
2749;DHT22;1382;52.142;11.618;2023-04-12T02:10:27;8.50;46.70
2749;DHT22;1382;52.142;11.618;2023-04-12T02:12:54;8.50;46.60
2749;DHT22;1382;52.142;11.618;2023-04-12T02:15:22;8.40;46.60
2749;DHT22;1382;52.142;11.618;2023-04-12T02:17:49;8.40;46.60
2749;DHT22;1382;52.142;11.618;2023-04-12T02:20:15;8.40;46.50
2749;DHT22;1382;52.142;11.618;2023-04-12T02:22:42;8.40;46.50
2749;DHT22;1382;52.142;11.618;2023-04-12T02:25:09;8.40;46.50
2749;DHT22;1382;52.142;11.618;2023-04-12T02:27:36;8.40;46.60
2749;DHT22;1382;52.142;11.618;2023-04-12T02:30:03;8.40;46.60
2749;DHT22;1382;52.142;11.618;2023-04-12T02:32:32;8.40;46.70
2749;DHT22;1382;52.142;11.618;2023-04-12T02:34:58;8.50;46.70
2749;DHT22;1382;52.142;11.618;2023-04-12T02:37:25;8.40;46.80
2749;DHT22;1382;52.142;11.618;2023-04-12T02:39:52;8.40;46.70
2749;DHT22;1382;52.142;11.618;2023-04-12T02:42:19;8.30;46.60
2749;DHT22;1382;52.142;11.618;2023-04-12T02:44:45;8.30;46.60
2749;DHT22;1382;52.142;11.618;2023-04-12T02:47:12;8.30;46.60
2749;DHT22;1382;52.142;11.618;2023-04-12T02:49:40;8.30;46.50
2749;DHT22;1382;52.142;11.618;2023-04-12T02:52:07;8.30;46.50
2749;DHT22;1382;52.142;11.618;2023-04-12T02:54:34;8.30;46.50
2749;DHT22;1382;52.142;11.618;2023-04-12T02:57:01;8.30;47.20
2749;DHT22;1382;52.142;11.618;2023-04-12T02:59:27;8.30;46.40
2749;DHT22;1382;52.142;11.618;2023-04-12T03:01:54;8.30;46.40
2749;DHT22;1382;52.142;11.618;2023-04-12T03:04:21;8.30;46.40
2749;DHT22;1382;52.142;11.618;2023-04-12T03:06:49;8.30;46.40
2749;DHT22;1382;52.142;11.618;2023-04-12T03:09:16;8.30;46.70
2749;DHT22;1382;52.142;11.618;2023-04-12T03:11:44;8.30;46.60
2749;DHT22;1382;52.142;11.618;2023-04-12T03:14:10;8.30;46.50
2749;DHT22;1382;52.142;11.618;2023-04-12T03:16:37;8.30;46.60
2749;DHT22;1382;52.142;11.618;2023-04-12T03:19:04;8.30;46.50
2749;DHT22;1382;52.142;11.618;2023-04-12T03:21:31;8.30;46.50
2749;DHT22;1382;52.142;11.618;2023-04-12T03:23:59;8.30;46.60
2749;DHT22;1382;52.142;11.618;2023-04-12T03:26:26;8.30;46.40
2749;DHT22;1382;52.142;11.618;2023-04-12T03:28:57;8.30;46.40
2749;DHT22;1382;52.142;11.618;2023-04-12T03:31:24;8.30;46.70
2749;DHT22;1382;52.142;11.618;2023-04-12T03:33:51;8.30;46.60
2749;DHT22;1382;52.142;11.618;2023-04-12T03:36:18;8.30;46.60
2749;DHT22;1382;52.142;11.618;2023-04-12T03:38:44;8.30;47.10
2749;DHT22;1382;52.142;11.618;2023-04-12T03:41:12;8.30;46.50
2749;DHT22;1382;52.142;11.618;2023-04-12T03:43:39;8.30;47.00
2749;DHT22;1382;52.142;11.618;2023-04-12T03:46:06;8.30;46.50
2749;DHT22;1382;52.142;11.618;2023-04-12T03:48:34;8.30;46.60
2749;DHT22;1382;52.142;11.618;2023-04-12T03:51:01;8.30;46.40
2749;DHT22;1382;52.142;11.618;2023-04-12T03:53:27;8.20;46.30
2749;DHT22;1382;52.142;11.618;2023-04-12T03:55:54;8.20;46.30
2749;DHT22;1382;52.142;11.618;2023-04-12T03:58:22;8.20;46.20
2749;DHT22;1382;52.142;11.618;2023-04-12T04:00:49;8.20;46.40
2749;DHT22;1382;52.142;11.618;2023-04-12T04:03:16;8.20;46.50
2749;DHT22;1382;52.142;11.618;2023-04-12T04:05:43;8.20;46.40
2749;DHT22;1382;52.142;11.618;2023-04-12T04:08:10;8.20;46.40
2749;DHT22;1382;52.142;11.618;2023-04-12T04:10:37;8.30;46.60
2749;DHT22;1382;52.142;11.618;2023-04-12T04:13:03;8.20;46.90
2749;DHT22;1382;52.142;11.618;2023-04-12T04:15:31;8.20;46.80
2749;DHT22;1382;52.142;11.618;2023-04-12T04:17:58;8.20;46.60
2749;DHT22;1382;52.142;11.618;2023-04-12T04:20:25;8.20;46.50
2749;DHT22;1382;52.142;11.618;2023-04-12T04:22:53;8.20;46.40
2749;DHT22;1382;52.142;11.618;2023-04-12T04:25:20;8.20;46.50
2749;DHT22;1382;52.142;11.618;2023-04-12T04:27:47;8.20;46.50
2749;DHT22;1382;52.142;11.618;2023-04-12T04:30:13;8.20;46.40
2749;DHT22;1382;52.142;11.618;2023-04-12T04:32:41;8.20;46.30
2749;DHT22;1382;52.142;11.618;2023-04-12T04:35:08;8.20;46.50
2749;DHT22;1382;52.142;11.618;2023-04-12T04:37:35;8.20;46.60
2749;DHT22;1382;52.142;11.618;2023-04-12T04:40:02;8.20;46.50
2749;DHT22;1382;52.142;11.618;2023-04-12T04:42:29;8.20;46.40
2749;DHT22;1382;52.142;11.618;2023-04-12T04:44:55;8.20;46.60
2749;DHT22;1382;52.142;11.618;2023-04-12T04:47:22;8.20;46.40
2749;DHT22;1382;52.142;11.618;2023-04-12T04:49:50;8.20;46.60
2749;DHT22;1382;52.142;11.618;2023-04-12T04:52:17;8.20;46.70
2749;DHT22;1382;52.142;11.618;2023-04-12T04:54:44;8.20;46.60
2749;DHT22;1382;52.142;11.618;2023-04-12T04:57:11;8.20;46.50
2749;DHT22;1382;52.142;11.618;2023-04-12T04:59:37;8.30;46.50
2749;DHT22;1382;52.142;11.618;2023-04-12T05:02:04;8.20;46.30
2749;DHT22;1382;52.142;11.618;2023-04-12T05:04:31;8.20;46.40
2749;DHT22;1382;52.142;11.618;2023-04-12T05:06:59;8.20;46.30
2749;DHT22;1382;52.142;11.618;2023-04-12T05:09:26;8.20;46.40
2749;DHT22;1382;52.142;11.618;2023-04-12T05:11:52;8.20;46.30
2749;DHT22;1382;52.142;11.618;2023-04-12T05:14:19;8.20;46.40
2749;DHT22;1382;52.142;11.618;2023-04-12T05:16:48;8.30;46.50
2749;DHT22;1382;52.142;11.618;2023-04-12T05:19:15;8.30;46.40
2749;DHT22;1382;52.142;11.618;2023-04-12T05:21:42;8.30;46.70
2749;DHT22;1382;52.142;11.618;2023-04-12T05:24:10;8.30;46.50
2749;DHT22;1382;52.142;11.618;2023-04-12T05:26:37;8.30;46.60
2749;DHT22;1382;52.142;11.618;2023-04-12T05:29:03;8.30;46.60
2749;DHT22;1382;52.142;11.618;2023-04-12T05:31:30;8.30;46.80
2749;DHT22;1382;52.142;11.618;2023-04-12T05:33:57;8.40;46.70
2749;DHT22;1382;52.142;11.618;2023-04-12T05:36:24;8.40;46.70
2749;DHT22;1382;52.142;11.618;2023-04-12T05:38:50;8.40;46.70
2749;DHT22;1382;52.142;11.618;2023-04-12T05:41:18;8.40;46.70
2749;DHT22;1382;52.142;11.618;2023-04-12T05:43:45;8.40;46.80
2749;DHT22;1382;52.142;11.618;2023-04-12T05:46:12;8.50;46.90
2749;DHT22;1382;52.142;11.618;2023-04-12T05:48:39;8.50;46.80
2749;DHT22;1382;52.142;11.618;2023-04-12T05:51:11;8.50;47.20
2749;DHT22;1382;52.142;11.618;2023-04-12T05:53:37;8.70;47.30
2749;DHT22;1382;52.142;11.618;2023-04-12T05:56:05;8.60;47.30
2749;DHT22;1382;52.142;11.618;2023-04-12T05:58:33;8.60;47.60
2749;DHT22;1382;52.142;11.618;2023-04-12T06:01:00;8.70;47.60
2749;DHT22;1382;52.142;11.618;2023-04-12T06:03:27;8.70;47.90
2749;DHT22;1382;52.142;11.618;2023-04-12T06:05:54;8.80;47.90
2749;DHT22;1382;52.142;11.618;2023-04-12T06:08:20;8.90;47.90
2749;DHT22;1382;52.142;11.618;2023-04-12T06:10:47;8.90;48.00
2749;DHT22;1382;52.142;11.618;2023-04-12T06:13:14;9.00;48.10
2749;DHT22;1382;52.142;11.618;2023-04-12T06:15:42;9.00;48.20
2749;DHT22;1382;52.142;11.618;2023-04-12T06:18:09;9.10;48.60
2749;DHT22;1382;52.142;11.618;2023-04-12T06:20:37;9.20;48.50
2749;DHT22;1382;52.142;11.618;2023-04-12T06:23:04;9.30;48.50
2749;DHT22;1382;52.142;11.618;2023-04-12T06:25:32;9.30;48.50
2749;DHT22;1382;52.142;11.618;2023-04-12T06:27:58;9.40;48.50
2749;DHT22;1382;52.142;11.618;2023-04-12T06:30:25;9.50;48.60
2749;DHT22;1382;52.142;11.618;2023-04-12T06:32:53;9.60;48.90
2749;DHT22;1382;52.142;11.618;2023-04-12T06:35:21;9.70;48.60
2749;DHT22;1382;52.142;11.618;2023-04-12T06:37:47;9.80;48.80
2749;DHT22;1382;52.142;11.618;2023-04-12T06:40:14;9.90;48.80
2749;DHT22;1382;52.142;11.618;2023-04-12T06:42:41;10.00;48.20
2749;DHT22;1382;52.142;11.618;2023-04-12T06:45:08;10.10;48.20
2749;DHT22;1382;52.142;11.618;2023-04-12T06:47:35;10.20;48.20
2749;DHT22;1382;52.142;11.618;2023-04-12T06:50:04;10.30;48.30
2749;DHT22;1382;52.142;11.618;2023-04-12T06:52:31;10.40;48.20
2749;DHT22;1382;52.142;11.618;2023-04-12T06:54:58;10.50;48.30
2749;DHT22;1382;52.142;11.618;2023-04-12T06:57:25;10.60;48.50
2749;DHT22;1382;52.142;11.618;2023-04-12T06:59:52;10.70;48.60
2749;DHT22;1382;52.142;11.618;2023-04-12T07:02:18;10.80;48.70
2749;DHT22;1382;52.142;11.618;2023-04-12T07:04:45;10.90;48.70
2749;DHT22;1382;52.142;11.618;2023-04-12T07:07:13;11.00;49.00
2749;DHT22;1382;52.142;11.618;2023-04-12T07:09:40;11.10;48.70
2749;DHT22;1382;52.142;11.618;2023-04-12T07:12:07;11.20;48.80
2749;DHT22;1382;52.142;11.618;2023-04-12T07:14:34;11.30;49.00
2749;DHT22;1382;52.142;11.618;2023-04-12T07:17:00;11.40;48.90
2749;DHT22;1382;52.142;11.618;2023-04-12T07:19:27;11.50;49.00
2749;DHT22;1382;52.142;11.618;2023-04-12T07:21:54;11.60;49.00
2749;DHT22;1382;52.142;11.618;2023-04-12T07:24:22;11.70;49.10
2749;DHT22;1382;52.142;11.618;2023-04-12T07:26:51;11.90;49.10
2749;DHT22;1382;52.142;11.618;2023-04-12T07:29:18;12.20;49.30
2749;DHT22;1382;52.142;11.618;2023-04-12T07:31:45;12.00;49.00
2749;DHT22;1382;52.142;11.618;2023-04-12T07:34:12;12.20;49.10
2749;DHT22;1382;52.142;11.618;2023-04-12T07:36:38;12.30;49.10
2749;DHT22;1382;52.142;11.618;2023-04-12T07:39:05;12.40;49.10
2749;DHT22;1382;52.142;11.618;2023-04-12T07:41:33;12.50;49.20
2749;DHT22;1382;52.142;11.618;2023-04-12T07:44:00;12.60;49.20
2749;DHT22;1382;52.142;11.618;2023-04-12T07:46:27;12.70;49.20
2749;DHT22;1382;52.142;11.618;2023-04-12T07:48:54;12.90;49.20
2749;DHT22;1382;52.142;11.618;2023-04-12T07:51:21;13.00;49.10
2749;DHT22;1382;52.142;11.618;2023-04-12T07:53:48;13.10;49.10
2749;DHT22;1382;52.142;11.618;2023-04-12T07:56:14;13.20;49.00
2749;DHT22;1382;52.142;11.618;2023-04-12T07:58:42;13.40;49.10
2749;DHT22;1382;52.142;11.618;2023-04-12T08:01:10;13.50;49.00
2749;DHT22;1382;52.142;11.618;2023-04-12T08:03:37;13.60;49.10
2749;DHT22;1382;52.142;11.618;2023-04-12T08:06:05;13.80;49.20
2749;DHT22;1382;52.142;11.618;2023-04-12T08:08:32;13.90;49.00
2749;DHT22;1382;52.142;11.618;2023-04-12T08:10:59;14.10;49.00
2749;DHT22;1382;52.142;11.618;2023-04-12T08:13:26;14.20;48.80
2749;DHT22;1382;52.142;11.618;2023-04-12T08:15:54;14.30;48.90
2749;DHT22;1382;52.142;11.618;2023-04-12T08:18:21;14.50;48.80
2749;DHT22;1382;52.142;11.618;2023-04-12T08:20:47;14.60;48.80
2749;DHT22;1382;52.142;11.618;2023-04-12T08:23:14;14.80;48.50
2749;DHT22;1382;52.142;11.618;2023-04-12T08:25:41;14.80;48.40
2749;DHT22;1382;52.142;11.618;2023-04-12T08:28:08;15.00;48.40
2749;DHT22;1382;52.142;11.618;2023-04-12T08:30:35;15.00;48.00
2749;DHT22;1382;52.142;11.618;2023-04-12T08:33:03;15.20;48.00
2749;DHT22;1382;52.142;11.618;2023-04-12T08:35:30;15.30;48.20
2749;DHT22;1382;52.142;11.618;2023-04-12T08:37:57;15.40;48.20
2749;DHT22;1382;52.142;11.618;2023-04-12T08:40:23;15.50;47.90
2749;DHT22;1382;52.142;11.618;2023-04-12T08:42:51;15.60;47.50
2749;DHT22;1382;52.142;11.618;2023-04-12T08:45:20;15.70;47.80
2749;DHT22;1382;52.142;11.618;2023-04-12T08:47:47;15.80;47.40
2749;DHT22;1382;52.142;11.618;2023-04-12T08:50:15;15.90;47.20
2749;DHT22;1382;52.142;11.618;2023-04-12T08:52:42;16.00;47.50
2749;DHT22;1382;52.142;11.618;2023-04-12T08:55:09;16.10;47.20
2749;DHT22;1382;52.142;11.618;2023-04-12T08:57:39;16.20;46.70
2749;DHT22;1382;52.142;11.618;2023-04-12T09:00:07;16.20;46.50
2749;DHT22;1382;52.142;11.618;2023-04-12T09:02:35;16.30;46.70
2749;DHT22;1382;52.142;11.618;2023-04-12T09:05:02;16.40;46.60
2749;DHT22;1382;52.142;11.618;2023-04-12T09:07:30;16.40;46.10
2749;DHT22;1382;52.142;11.618;2023-04-12T09:09:57;16.50;46.10
2749;DHT22;1382;52.142;11.618;2023-04-12T09:12:24;16.50;46.40
2749;DHT22;1382;52.142;11.618;2023-04-12T09:15:05;16.60;45.80
2749;DHT22;1382;52.142;11.618;2023-04-12T09:17:32;16.70;45.80
2749;DHT22;1382;52.142;11.618;2023-04-12T09:19:58;16.70;46.40
2749;DHT22;1382;52.142;11.618;2023-04-12T09:22:34;16.80;46.00
2749;DHT22;1382;52.142;11.618;2023-04-12T09:25:01;16.90;46.10
2749;DHT22;1382;52.142;11.618;2023-04-12T09:27:28;16.90;45.70
2749;DHT22;1382;52.142;11.618;2023-04-12T09:30:06;17.00;46.40
2749;DHT22;1382;52.142;11.618;2023-04-12T09:32:33;17.10;46.00
2749;DHT22;1382;52.142;11.618;2023-04-12T09:35:00;17.10;47.30
2749;DHT22;1382;52.142;11.618;2023-04-12T09:37:27;17.20;46.90
2749;DHT22;1382;52.142;11.618;2023-04-12T09:40:00;17.20;46.50
2749;DHT22;1382;52.142;11.618;2023-04-12T09:42:27;17.30;46.20
2749;DHT22;1382;52.142;11.618;2023-04-12T09:45:02;17.40;46.30
2749;DHT22;1382;52.142;11.618;2023-04-12T09:47:43;17.40;45.90
2749;DHT22;1382;52.142;11.618;2023-04-12T09:50:18;17.50;45.50
2749;DHT22;1382;52.142;11.618;2023-04-12T09:52:45;17.60;45.20
2749;DHT22;1382;52.142;11.618;2023-04-12T09:55:14;17.60;45.80
2749;DHT22;1382;52.142;11.618;2023-04-12T09:57:43;17.70;45.10
2749;DHT22;1382;52.142;11.618;2023-04-12T10:00:11;17.90;46.60
2749;DHT22;1382;52.142;11.618;2023-04-12T10:02:40;17.80;46.70
2749;DHT22;1382;52.142;11.618;2023-04-12T10:05:11;17.90;47.00
2749;DHT22;1382;52.142;11.618;2023-04-12T10:07:39;17.90;45.60
2749;DHT22;1382;52.142;11.618;2023-04-12T10:10:07;18.00;46.10
2749;DHT22;1382;52.142;11.618;2023-04-12T10:12:36;18.10;45.30
2749;DHT22;1382;52.142;11.618;2023-04-12T10:15:03;18.30;45.70
2749;DHT22;1382;52.142;11.618;2023-04-12T10:17:31;18.20;46.40
2749;DHT22;1382;52.142;11.618;2023-04-12T10:20:00;18.30;45.70
2749;DHT22;1382;52.142;11.618;2023-04-12T10:22:28;18.30;45.80
2749;DHT22;1382;52.142;11.618;2023-04-12T10:24:55;18.40;45.60
2749;DHT22;1382;52.142;11.618;2023-04-12T10:27:25;18.30;45.80
2749;DHT22;1382;52.142;11.618;2023-04-12T10:29:53;18.50;46.30
2749;DHT22;1382;52.142;11.618;2023-04-12T10:32:21;18.60;44.50
2749;DHT22;1382;52.142;11.618;2023-04-12T10:34:52;18.60;43.20
2749;DHT22;1382;52.142;11.618;2023-04-12T10:37:19;18.60;43.70
2749;DHT22;1382;52.142;11.618;2023-04-12T10:39:51;18.60;45.40
2749;DHT22;1382;52.142;11.618;2023-04-12T10:42:20;18.70;44.70
2749;DHT22;1382;52.142;11.618;2023-04-12T10:44:48;18.70;44.50
2749;DHT22;1382;52.142;11.618;2023-04-12T10:47:54;18.80;45.80
2749;DHT22;1382;52.142;11.618;2023-04-12T10:50:23;18.80;44.70
2749;DHT22;1382;52.142;11.618;2023-04-12T10:53:20;18.80;45.10
2749;DHT22;1382;52.142;11.618;2023-04-12T10:55:47;18.80;44.40
2749;DHT22;1382;52.142;11.618;2023-04-12T11:01:14;18.80;41.90
2749;DHT22;1382;52.142;11.618;2023-04-12T11:04:07;18.70;43.50
2749;DHT22;1382;52.142;11.618;2023-04-12T11:06:42;18.70;43.10
2749;DHT22;1382;52.142;11.618;2023-04-12T11:09:16;18.60;43.50
2749;DHT22;1382;52.142;11.618;2023-04-12T11:11:43;18.60;42.50
2749;DHT22;1382;52.142;11.618;2023-04-12T11:14:10;18.60;41.70
2749;DHT22;1382;52.142;11.618;2023-04-12T11:19:40;18.60;42.10
2749;DHT22;1382;52.142;11.618;2023-04-12T11:22:08;18.60;42.10
2749;DHT22;1382;52.142;11.618;2023-04-12T11:24:37;18.60;43.80
2749;DHT22;1382;52.142;11.618;2023-04-12T11:27:04;18.50;43.60
2749;DHT22;1382;52.142;11.618;2023-04-12T11:29:31;18.50;43.90
2749;DHT22;1382;52.142;11.618;2023-04-12T11:31:58;18.50;43.80
2749;DHT22;1382;52.142;11.618;2023-04-12T11:34:25;18.40;43.40
2749;DHT22;1382;52.142;11.618;2023-04-12T11:36:53;18.40;43.70
2749;DHT22;1382;52.142;11.618;2023-04-12T11:39:20;18.40;43.70
2749;DHT22;1382;52.142;11.618;2023-04-12T11:41:48;18.40;44.00
2749;DHT22;1382;52.142;11.618;2023-04-12T11:44:15;18.30;43.80
2749;DHT22;1382;52.142;11.618;2023-04-12T11:46:42;18.40;44.20
2749;DHT22;1382;52.142;11.618;2023-04-12T11:49:09;18.30;44.40
2749;DHT22;1382;52.142;11.618;2023-04-12T11:51:36;18.20;44.50
2749;DHT22;1382;52.142;11.618;2023-04-12T11:54:04;18.20;44.70
2749;DHT22;1382;52.142;11.618;2023-04-12T11:56:31;18.10;44.60
2749;DHT22;1382;52.142;11.618;2023-04-12T11:58:57;18.20;44.90
2749;DHT22;1382;52.142;11.618;2023-04-12T12:01:24;18.00;44.80
2749;DHT22;1382;52.142;11.618;2023-04-12T12:03:51;18.00;45.60
2749;DHT22;1382;52.142;11.618;2023-04-12T12:06:18;18.00;45.20
2749;DHT22;1382;52.142;11.618;2023-04-12T12:08:47;17.90;45.30
2749;DHT22;1382;52.142;11.618;2023-04-12T12:11:16;18.00;45.50
2749;DHT22;1382;52.142;11.618;2023-04-12T12:13:43;17.80;45.40
2749;DHT22;1382;52.142;11.618;2023-04-12T12:16:10;17.70;45.30
2749;DHT22;1382;52.142;11.618;2023-04-12T12:18:38;17.60;45.60
2749;DHT22;1382;52.142;11.618;2023-04-12T12:21:27;17.60;45.90
2749;DHT22;1382;52.142;11.618;2023-04-12T12:24:24;17.70;46.30
2749;DHT22;1382;52.142;11.618;2023-04-12T12:26:52;17.40;46.30
2749;DHT22;1382;52.142;11.618;2023-04-12T12:29:19;17.30;46.50
2749;DHT22;1382;52.142;11.618;2023-04-12T12:31:46;17.30;46.50
2749;DHT22;1382;52.142;11.618;2023-04-12T12:34:13;17.30;46.70
2749;DHT22;1382;52.142;11.618;2023-04-12T12:36:39;17.20;46.70
2749;DHT22;1382;52.142;11.618;2023-04-12T12:39:07;17.20;47.00
2749;DHT22;1382;52.142;11.618;2023-04-12T12:41:34;17.10;47.20
2749;DHT22;1382;52.142;11.618;2023-04-12T12:44:02;17.00;47.40
2749;DHT22;1382;52.142;11.618;2023-04-12T12:46:29;16.90;47.40
2749;DHT22;1382;52.142;11.618;2023-04-12T12:49:16;16.90;46.80
2749;DHT22;1382;52.142;11.618;2023-04-12T12:51:43;16.80;46.90
2749;DHT22;1382;52.142;11.618;2023-04-12T12:54:10;16.80;47.20
2749;DHT22;1382;52.142;11.618;2023-04-12T12:56:36;16.70;47.20
2749;DHT22;1382;52.142;11.618;2023-04-12T12:59:04;16.70;47.20
2749;DHT22;1382;52.142;11.618;2023-04-12T13:01:31;16.70;47.50
2749;DHT22;1382;52.142;11.618;2023-04-12T13:03:58;16.60;47.60
2749;DHT22;1382;52.142;11.618;2023-04-12T13:06:25;16.60;47.50
2749;DHT22;1382;52.142;11.618;2023-04-12T13:08:52;16.50;47.70
2749;DHT22;1382;52.142;11.618;2023-04-12T13:11:19;16.50;47.50
2749;DHT22;1382;52.142;11.618;2023-04-12T13:13:45;16.40;47.50
2749;DHT22;1382;52.142;11.618;2023-04-12T13:16:14;16.40;47.40
2749;DHT22;1382;52.142;11.618;2023-04-12T13:18:41;16.30;47.30
2749;DHT22;1382;52.142;11.618;2023-04-12T13:21:08;16.30;47.70
2749;DHT22;1382;52.142;11.618;2023-04-12T13:23:35;16.30;47.70
2749;DHT22;1382;52.142;11.618;2023-04-12T13:26:01;16.20;47.60
2749;DHT22;1382;52.142;11.618;2023-04-12T13:28:28;16.20;47.80
2749;DHT22;1382;52.142;11.618;2023-04-12T13:30:55;16.20;47.90
2749;DHT22;1382;52.142;11.618;2023-04-12T13:33:23;16.20;48.00
2749;DHT22;1382;52.142;11.618;2023-04-12T13:35:50;16.10;48.00
2749;DHT22;1382;52.142;11.618;2023-04-12T13:38:17;16.10;48.10
2749;DHT22;1382;52.142;11.618;2023-04-12T13:40:44;16.10;48.10
2749;DHT22;1382;52.142;11.618;2023-04-12T13:43:10;16.00;48.10
2749;DHT22;1382;52.142;11.618;2023-04-12T13:45:37;16.00;48.40
2749;DHT22;1382;52.142;11.618;2023-04-12T13:48:04;16.00;48.40
2749;DHT22;1382;52.142;11.618;2023-04-12T13:50:32;16.00;48.50
2749;DHT22;1382;52.142;11.618;2023-04-12T13:52:59;16.00;48.60
2749;DHT22;1382;52.142;11.618;2023-04-12T13:55:26;16.00;48.60
2749;DHT22;1382;52.142;11.618;2023-04-12T13:57:53;16.00;48.40
2749;DHT22;1382;52.142;11.618;2023-04-12T14:00:20;16.00;48.40
2749;DHT22;1382;52.142;11.618;2023-04-12T14:02:46;16.00;48.90
2749;DHT22;1382;52.142;11.618;2023-04-12T14:05:13;16.00;48.90
2749;DHT22;1382;52.142;11.618;2023-04-12T14:07:41;16.00;49.50
2749;DHT22;1382;52.142;11.618;2023-04-12T14:10:09;16.00;49.40
2749;DHT22;1382;52.142;11.618;2023-04-12T14:12:36;16.00;49.00
2749;DHT22;1382;52.142;11.618;2023-04-12T14:15:03;16.00;49.10
2749;DHT22;1382;52.142;11.618;2023-04-12T14:17:30;16.00;49.20
2749;DHT22;1382;52.142;11.618;2023-04-12T14:19:57;16.00;49.00
2749;DHT22;1382;52.142;11.618;2023-04-12T14:22:24;16.00;49.30
2749;DHT22;1382;52.142;11.618;2023-04-12T14:24:52;16.00;49.60
2749;DHT22;1382;52.142;11.618;2023-04-12T14:27:19;16.00;49.40
2749;DHT22;1382;52.142;11.618;2023-04-12T14:29:45;16.00;49.40
2749;DHT22;1382;52.142;11.618;2023-04-12T14:32:12;15.90;49.30
2749;DHT22;1382;52.142;11.618;2023-04-12T14:34:39;15.90;49.50
2749;DHT22;1382;52.142;11.618;2023-04-12T14:37:06;15.90;49.60
2749;DHT22;1382;52.142;11.618;2023-04-12T14:39:33;15.90;49.10
2749;DHT22;1382;52.142;11.618;2023-04-12T14:42:01;15.90;49.30
2749;DHT22;1382;52.142;11.618;2023-04-12T14:44:27;15.90;49.80
2749;DHT22;1382;52.142;11.618;2023-04-12T14:46:54;15.80;49.30
2749;DHT22;1382;52.142;11.618;2023-04-12T14:49:21;15.80;49.20
2749;DHT22;1382;52.142;11.618;2023-04-12T14:51:48;15.80;49.10
2749;DHT22;1382;52.142;11.618;2023-04-12T14:54:15;15.80;49.00
2749;DHT22;1382;52.142;11.618;2023-04-12T14:56:41;15.80;49.20
2749;DHT22;1382;52.142;11.618;2023-04-12T14:59:19;15.80;49.60
2749;DHT22;1382;52.142;11.618;2023-04-12T15:01:46;15.80;49.30
2749;DHT22;1382;52.142;11.618;2023-04-12T15:04:13;15.70;49.30
2749;DHT22;1382;52.142;11.618;2023-04-12T15:06:40;15.70;50.10
2749;DHT22;1382;52.142;11.618;2023-04-12T15:09:07;15.70;50.40
2749;DHT22;1382;52.142;11.618;2023-04-12T15:11:34;15.70;49.60
2749;DHT22;1382;52.142;11.618;2023-04-12T15:14:01;15.70;49.60
2749;DHT22;1382;52.142;11.618;2023-04-12T15:16:29;15.60;49.70
2749;DHT22;1382;52.142;11.618;2023-04-12T15:18:56;15.60;49.90
2749;DHT22;1382;52.142;11.618;2023-04-12T15:21:26;15.60;49.60
2749;DHT22;1382;52.142;11.618;2023-04-12T15:23:53;15.60;49.40
2749;DHT22;1382;52.142;11.618;2023-04-12T15:26:20;15.50;49.50
2749;DHT22;1382;52.142;11.618;2023-04-12T15:28:46;15.50;49.90
2749;DHT22;1382;52.142;11.618;2023-04-12T15:31:13;15.50;49.60
2749;DHT22;1382;52.142;11.618;2023-04-12T15:33:41;15.50;49.90
2749;DHT22;1382;52.142;11.618;2023-04-12T15:36:08;15.50;49.60
2749;DHT22;1382;52.142;11.618;2023-04-12T15:38:39;15.50;50.00
2749;DHT22;1382;52.142;11.618;2023-04-12T15:41:07;15.60;50.10
2749;DHT22;1382;52.142;11.618;2023-04-12T15:43:34;15.40;50.10
2749;DHT22;1382;52.142;11.618;2023-04-12T15:46:00;15.40;50.00
2749;DHT22;1382;52.142;11.618;2023-04-12T15:48:27;15.40;50.00
2749;DHT22;1382;52.142;11.618;2023-04-12T15:50:56;15.40;50.10
2749;DHT22;1382;52.142;11.618;2023-04-12T15:53:24;15.40;50.00
2749;DHT22;1382;52.142;11.618;2023-04-12T15:55:52;15.30;50.10
2749;DHT22;1382;52.142;11.618;2023-04-12T15:58:18;15.30;50.10
2749;DHT22;1382;52.142;11.618;2023-04-12T16:00:45;15.40;50.20
2749;DHT22;1382;52.142;11.618;2023-04-12T16:03:12;15.30;50.00